createdAt,value
2018-03-14T00:04:35.742Z,6.37
2018-03-14T00:10:26.448Z,5.19
2018-03-14T00:16:17.078Z,4.38
2018-03-14T00:22:07.810Z,5.99
2018-03-14T00:27:58.515Z,6.32
2018-03-14T00:33:49.209Z,7.42
2018-03-14T00:39:39.944Z,6.93
2018-03-14T00:45:30.635Z,6.53
2018-03-14T00:51:21.341Z,7.65
2018-03-14T00:57:12.006Z,10.52
2018-03-14T01:03:02.709Z,8.49
2018-03-14T01:08:53.422Z,7.29
2018-03-14T01:14:44.120Z,8.9
2018-03-14T01:20:34.824Z,6.04
2018-03-14T01:26:25.527Z,6.51
2018-03-14T01:32:16.213Z,8.88
2018-03-14T01:38:06.972Z,8.78
2018-03-14T01:43:57.622Z,5.73
2018-03-14T01:49:48.357Z,7.08
2018-03-14T01:55:39.080Z,7.21
2018-03-14T02:01:29.758Z,9.16
2018-03-14T02:07:20.443Z,6.76
2018-03-14T02:13:11.142Z,10.51
2018-03-14T02:19:01.913Z,7.13
2018-03-14T02:24:52.559Z,8.05
2018-03-14T02:30:43.235Z,8.89
2018-03-14T02:36:33.995Z,5.87
2018-03-14T02:42:24.650Z,4.14
2018-03-14T02:48:15.363Z,7.85
2018-03-14T02:54:06.057Z,9.15
2018-03-14T02:59:56.781Z,7.23
2018-03-14T03:05:47.453Z,5.93
2018-03-14T03:11:38.149Z,6.16
2018-03-14T03:17:28.854Z,7.45
2018-03-14T03:23:19.528Z,8.93
2018-03-14T03:29:10.276Z,4.16
2018-03-14T03:35:01.001Z,7.37
2018-03-14T03:40:51.661Z,7.53
2018-03-14T03:46:42.383Z,6.64
2018-03-14T03:52:33.024Z,10.22
2018-03-14T03:58:23.746Z,7.33
2018-03-14T04:04:14.437Z,7.5
2018-03-14T04:10:05.132Z,10.64
2018-03-14T04:15:55.812Z,5.07
2018-03-14T04:21:46.547Z,8.81
2018-03-14T04:27:37.217Z,7.99
2018-03-14T04:33:28.006Z,6.12
2018-03-14T04:39:18.644Z,6.78
2018-03-14T04:45:09.295Z,5.2
2018-03-14T04:51:00.008Z,8.34
2018-03-14T04:56:50.702Z,7.6
2018-03-14T05:02:41.426Z,7.99
2018-03-14T05:08:32.113Z,4.15
2018-03-14T05:14:22.797Z,7.37
2018-03-14T05:20:13.497Z,6.28
2018-03-14T05:26:04.225Z,3.53
2018-03-14T05:31:54.897Z,6.03
2018-03-14T05:37:45.621Z,4.17
2018-03-14T05:43:36.303Z,9.91
2018-03-14T05:49:26.998Z,7.51
2018-03-14T05:55:17.674Z,5.97
2018-03-14T06:01:08.390Z,3.34
2018-03-14T06:06:59.100Z,6.34
2018-03-14T06:12:49.783Z,8.91
2018-03-14T06:18:40.485Z,7.78
2018-03-14T06:24:31.219Z,9.57
2018-03-14T06:30:21.927Z,8.07
2018-03-14T06:36:12.630Z,5.92
2018-03-14T06:42:03.315Z,5.73
2018-03-14T06:47:53.997Z,5.89
2018-03-14T06:53:44.725Z,8.26
2018-03-14T06:59:35.421Z,7.53
2018-03-14T07:05:26.124Z,5.49
2018-03-14T07:11:16.780Z,23.54
2018-03-14T07:17:07.503Z,18.71
2018-03-14T07:22:58.222Z,10.15
2018-03-14T07:28:48.875Z,5.08
2018-03-14T07:34:39.618Z,7.32
2018-03-14T07:40:30.288Z,6.14
2018-03-14T07:46:21.019Z,14.21
2018-03-14T07:52:11.716Z,9.91
2018-03-14T07:58:02.393Z,10.29
2018-03-14T08:03:53.079Z,12.37
2018-03-14T08:09:43.773Z,8.51
2018-03-14T08:15:34.477Z,6.35
2018-03-14T08:21:25.221Z,14.29
2018-03-14T08:27:15.919Z,7.35
2018-03-14T08:33:06.557Z,9.28
2018-03-14T08:38:57.278Z,5.69
2018-03-14T08:44:47.996Z,15.67
2018-03-14T08:50:38.711Z,14.4
2018-03-14T08:56:29.423Z,13.88
2018-03-14T09:02:20.104Z,19.15
2018-03-14T09:08:10.812Z,16.49
2018-03-14T09:14:01.481Z,14.24
2018-03-14T09:19:52.219Z,23.56
2018-03-14T09:25:42.896Z,20.95
2018-03-14T09:31:33.632Z,16.87
2018-03-14T09:37:24.384Z,21.38
2018-03-14T09:43:14.989Z,15.99
2018-03-14T09:49:05.769Z,19.02
2018-03-14T09:54:56.397Z,15.45
2018-03-14T10:00:47.165Z,20.12
2018-03-14T10:06:37.832Z,11.74
2018-03-14T10:12:28.555Z,9.28
2018-03-14T10:18:19.271Z,17.25
2018-03-14T10:24:09.938Z,20.38
2018-03-14T10:30:00.663Z,15.05
2018-03-14T10:35:51.353Z,11.94
2018-03-14T10:41:42.051Z,10.55
2018-03-14T10:47:32.805Z,11.21
2018-03-14T10:53:23.520Z,11.12
2018-03-14T10:59:14.199Z,10.42
2018-03-14T11:05:04.939Z,14.06
2018-03-14T11:10:55.608Z,10.98
2018-03-14T11:16:46.332Z,6.9
2018-03-14T11:22:37.040Z,7.26
2018-03-14T11:28:27.764Z,10.18
2018-03-14T11:34:18.520Z,13.79
2018-03-14T11:40:09.182Z,10.72
2018-03-14T11:45:59.890Z,4.18
2018-03-14T11:51:50.630Z,8.19
2018-03-14T11:57:41.320Z,13.98
2018-03-14T12:03:32.046Z,7.58
2018-03-14T12:09:22.745Z,13.09
2018-03-14T12:15:13.496Z,7.21
2018-03-14T12:21:04.180Z,5.69
2018-03-14T12:26:54.952Z,10.88
2018-03-14T12:32:45.616Z,8.03
2018-03-14T12:38:36.366Z,11.04
2018-03-14T12:44:27.059Z,11.57
2018-03-14T12:50:17.840Z,13.73
2018-03-14T12:56:08.501Z,8.88
2018-03-14T13:01:59.239Z,8.21
2018-03-14T13:07:49.945Z,7.91
2018-03-14T13:13:40.722Z,12.09
2018-03-14T13:19:31.398Z,8.61
2018-03-14T13:25:22.126Z,5.43
2018-03-14T13:31:12.837Z,6.26
2018-03-14T13:37:03.652Z,10.26
2018-03-14T13:42:54.331Z,9.88
2018-03-14T13:48:45.033Z,6.2
2018-03-14T13:54:35.768Z,7.48
2018-03-14T14:00:26.552Z,4.41
2018-03-14T14:06:17.290Z,6.6
2018-03-14T14:12:07.980Z,3.65
2018-03-14T14:17:58.680Z,7.6
2018-03-14T14:23:49.426Z,4.89
2018-03-14T14:29:40.184Z,7.87
2018-03-14T14:35:30.906Z,8.31
2018-03-14T14:41:21.624Z,6.35
2018-03-14T14:47:12.422Z,7.59
2018-03-14T14:53:03.176Z,6.42
2018-03-14T14:58:53.900Z,7.06
2018-03-14T15:04:44.635Z,5.87
2018-03-14T15:10:35.360Z,6.39
2018-03-14T15:16:26.116Z,6.82
2018-03-14T15:22:16.855Z,6.52
2018-03-14T15:28:07.622Z,5.76
2018-03-14T15:33:58.386Z,4.15
2018-03-14T15:39:49.093Z,5.66
2018-03-14T15:45:39.840Z,6.24
2018-03-14T15:51:30.579Z,11.03
2018-03-14T15:57:21.314Z,5.13
2018-03-14T16:03:12.116Z,5.66
2018-03-14T16:09:02.883Z,6.77
2018-03-14T16:14:53.546Z,6.39
2018-03-14T16:20:44.294Z,12.25
2018-03-14T16:26:34.990Z,7.85
2018-03-14T16:32:25.707Z,7.06
2018-03-14T16:38:16.455Z,7.82
2018-03-14T16:44:07.198Z,7.32
2018-03-14T16:49:57.946Z,11.46
2018-03-14T16:55:48.669Z,8.58
2018-03-14T17:01:39.370Z,4.71
2018-03-14T17:07:30.062Z,11.29
2018-03-14T17:13:20.798Z,9.53
2018-03-14T17:19:11.544Z,9.36
2018-03-14T17:25:02.249Z,7.05
2018-03-14T17:30:52.944Z,11.55
2018-03-14T17:36:43.697Z,7.92
2018-03-14T17:42:34.403Z,4.82
2018-03-14T17:48:25.133Z,7.71
2018-03-14T17:54:15.828Z,9.47
2018-03-14T18:00:06.561Z,5.95
2018-03-14T18:05:57.239Z,8.66
2018-03-14T18:11:47.964Z,11.13
2018-03-14T18:17:38.677Z,12.05
2018-03-14T18:23:29.370Z,13.84
2018-03-14T18:29:20.116Z,10.54
2018-03-14T18:35:10.849Z,14.46
2018-03-14T18:41:01.477Z,14.85
2018-03-14T18:46:52.225Z,15.76
2018-03-14T18:52:42.958Z,29.81
2018-03-14T18:58:33.700Z,13.86
2018-03-14T19:04:24.349Z,14.44
2018-03-14T19:10:15.063Z,9.63
2018-03-14T19:16:05.799Z,16.76
2018-03-14T19:21:56.477Z,12.95
2018-03-14T19:27:47.326Z,10.56
2018-03-14T19:33:37.969Z,17.07
2018-03-14T19:39:28.643Z,16.91
2018-03-14T19:45:19.343Z,17.79
2018-03-14T19:51:10.038Z,11.47
2018-03-14T19:57:00.887Z,19.99
2018-03-14T20:02:51.632Z,19.16
2018-03-14T20:08:42.428Z,17.25
2018-03-14T20:14:33.030Z,18.41
2018-03-14T20:20:23.762Z,23.42
2018-03-14T20:26:14.442Z,15.66
2018-03-14T20:32:05.165Z,24.27
2018-03-14T20:37:55.858Z,19.74
2018-03-14T20:43:46.582Z,27.48
2018-03-14T20:49:37.252Z,18.84
2018-03-14T20:55:27.938Z,12.93
2018-03-14T21:01:18.704Z,16.64
2018-03-14T21:07:09.404Z,14.84
2018-03-14T21:13:00.090Z,17.62
2018-03-14T21:18:50.817Z,13.38
2018-03-14T21:24:41.493Z,15.74
2018-03-14T21:30:32.204Z,16
2018-03-14T21:36:22.998Z,19.6
2018-03-14T21:42:13.643Z,16.38
2018-03-14T21:48:04.358Z,13.31
2018-03-14T21:53:55.096Z,19.11
2018-03-14T21:59:45.786Z,16.66
2018-03-14T22:05:36.516Z,18.5
2018-03-14T22:11:27.183Z,21.1
2018-03-14T22:17:17.931Z,11.8
2018-03-14T22:23:08.594Z,25.16
2018-03-14T22:28:59.375Z,21.1
2018-03-14T22:34:50.003Z,15.68
2018-03-14T22:40:40.740Z,17.26
2018-03-14T22:46:31.479Z,19.73
2018-03-14T22:52:22.138Z,15.71
2018-03-14T22:58:12.910Z,16.99
2018-03-14T23:04:03.589Z,14.23
2018-03-14T23:09:54.278Z,15.89
2018-03-14T23:15:45.047Z,18.19
2018-03-14T23:21:35.687Z,16.71
2018-03-14T23:27:26.412Z,16.41
2018-03-14T23:33:17.106Z,18.48
2018-03-14T23:39:07.792Z,20.27
2018-03-14T23:44:58.498Z,16.29
2018-03-14T23:50:49.234Z,17.98
2018-03-14T23:56:39.940Z,20.91
